sensor_id;sensor_type;location;lat;lon;timestamp;temperature;humidity
30304;DHT22;17112;48.636;10.152;2023-10-13T00:01:33;18.30;59.10
30304;DHT22;17112;48.636;10.152;2023-10-13T00:03:59;18.30;59.10
30304;DHT22;17112;48.636;10.152;2023-10-13T00:06:30;18.30;59.20
30304;DHT22;17112;48.636;10.152;2023-10-13T00:08:56;18.30;59.20
30304;DHT22;17112;48.636;10.152;2023-10-13T00:11:22;18.30;59.30
30304;DHT22;17112;48.636;10.152;2023-10-13T00:13:47;18.30;59.40
30304;DHT22;17112;48.636;10.152;2023-10-13T00:16:20;18.30;59.40
30304;DHT22;17112;48.636;10.152;2023-10-13T00:18:54;18.30;59.50
30304;DHT22;17112;48.636;10.152;2023-10-13T00:21:23;18.30;59.40
30304;DHT22;17112;48.636;10.152;2023-10-13T00:23:58;18.20;59.50
30304;DHT22;17112;48.636;10.152;2023-10-13T00:26:28;18.20;59.50
30304;DHT22;17112;48.636;10.152;2023-10-13T00:28:56;18.20;59.60
30304;DHT22;17112;48.636;10.152;2023-10-13T00:31:41;18.20;59.70
30304;DHT22;17112;48.636;10.152;2023-10-13T00:34:14;18.20;59.60
30304;DHT22;17112;48.636;10.152;2023-10-13T00:36:46;18.10;59.60
30304;DHT22;17112;48.636;10.152;2023-10-13T00:39:34;18.10;59.70
30304;DHT22;17112;48.636;10.152;2023-10-13T00:42:02;18.00;59.60
30304;DHT22;17112;48.636;10.152;2023-10-13T00:44:32;18.00;59.70
30304;DHT22;17112;48.636;10.152;2023-10-13T00:47:09;18.00;59.80
30304;DHT22;17112;48.636;10.152;2023-10-13T00:49:36;18.00;59.90
30304;DHT22;17112;48.636;10.152;2023-10-13T00:52:09;18.00;59.90
30304;DHT22;17112;48.636;10.152;2023-10-13T00:54:39;17.90;60.20
30304;DHT22;17112;48.636;10.152;2023-10-13T00:57:05;17.90;60.20
30304;DHT22;17112;48.636;10.152;2023-10-13T00:59:37;17.90;60.00
30304;DHT22;17112;48.636;10.152;2023-10-13T01:02:03;17.90;60.00
30304;DHT22;17112;48.636;10.152;2023-10-13T01:04:48;17.90;60.70
30304;DHT22;17112;48.636;10.152;2023-10-13T01:07:14;17.80;59.90
30304;DHT22;17112;48.636;10.152;2023-10-13T01:09:43;17.80;60.00
30304;DHT22;17112;48.636;10.152;2023-10-13T01:12:08;17.80;60.00
30304;DHT22;17112;48.636;10.152;2023-10-13T01:14:34;17.80;60.10
30304;DHT22;17112;48.636;10.152;2023-10-13T01:17:01;17.70;60.20
30304;DHT22;17112;48.636;10.152;2023-10-13T01:19:26;17.70;60.30
30304;DHT22;17112;48.636;10.152;2023-10-13T01:21:53;17.70;60.40
30304;DHT22;17112;48.636;10.152;2023-10-13T01:24:37;17.60;60.40
30304;DHT22;17112;48.636;10.152;2023-10-13T01:27:03;17.60;60.40
30304;DHT22;17112;48.636;10.152;2023-10-13T01:29:43;17.60;60.50
30304;DHT22;17112;48.636;10.152;2023-10-13T01:32:15;17.60;60.50
30304;DHT22;17112;48.636;10.152;2023-10-13T01:34:40;17.50;60.50
30304;DHT22;17112;48.636;10.152;2023-10-13T01:37:11;17.50;60.50
30304;DHT22;17112;48.636;10.152;2023-10-13T01:39:37;17.50;60.60
30304;DHT22;17112;48.636;10.152;2023-10-13T01:42:03;17.40;60.60
30304;DHT22;17112;48.636;10.152;2023-10-13T01:44:29;17.40;60.70
30304;DHT22;17112;48.636;10.152;2023-10-13T01:47:02;17.40;61.50
30304;DHT22;17112;48.636;10.152;2023-10-13T01:49:32;17.40;61.00
30304;DHT22;17112;48.636;10.152;2023-10-13T01:52:15;17.30;60.50
30304;DHT22;17112;48.636;10.152;2023-10-13T01:54:42;17.30;60.50
30304;DHT22;17112;48.636;10.152;2023-10-13T01:57:10;17.30;60.60
30304;DHT22;17112;48.636;10.152;2023-10-13T01:59:40;17.20;60.60
30304;DHT22;17112;48.636;10.152;2023-10-13T02:02:12;17.20;60.60
30304;DHT22;17112;48.636;10.152;2023-10-13T02:04:41;17.10;60.80
30304;DHT22;17112;48.636;10.152;2023-10-13T02:07:21;17.10;61.00
30304;DHT22;17112;48.636;10.152;2023-10-13T02:09:52;17.10;60.90
30304;DHT22;17112;48.636;10.152;2023-10-13T02:12:20;17.00;61.00
30304;DHT22;17112;48.636;10.152;2023-10-13T02:14:53;17.00;61.00
30304;DHT22;17112;48.636;10.152;2023-10-13T02:17:18;17.00;61.10
30304;DHT22;17112;48.636;10.152;2023-10-13T02:19:47;16.90;61.10
30304;DHT22;17112;48.636;10.152;2023-10-13T02:22:13;16.90;61.20
30304;DHT22;17112;48.636;10.152;2023-10-13T02:24:52;16.90;61.30
30304;DHT22;17112;48.636;10.152;2023-10-13T02:27:18;16.80;61.10
30304;DHT22;17112;48.636;10.152;2023-10-13T02:29:49;16.80;61.20
30304;DHT22;17112;48.636;10.152;2023-10-13T02:32:15;16.80;61.40
30304;DHT22;17112;48.636;10.152;2023-10-13T02:34:47;16.70;61.20
30304;DHT22;17112;48.636;10.152;2023-10-13T02:37:13;16.70;61.40
30304;DHT22;17112;48.636;10.152;2023-10-13T02:39:40;16.60;61.20
30304;DHT22;17112;48.636;10.152;2023-10-13T02:42:09;16.60;61.40
30304;DHT22;17112;48.636;10.152;2023-10-13T02:44:50;16.60;61.50
30304;DHT22;17112;48.636;10.152;2023-10-13T02:47:16;16.60;61.50
30304;DHT22;17112;48.636;10.152;2023-10-13T02:49:44;16.50;61.50
30304;DHT22;17112;48.636;10.152;2023-10-13T02:52:13;16.50;61.60
30304;DHT22;17112;48.636;10.152;2023-10-13T02:54:40;16.40;61.50
30304;DHT22;17112;48.636;10.152;2023-10-13T02:57:13;16.40;61.60
30304;DHT22;17112;48.636;10.152;2023-10-13T02:59:41;16.40;61.50
30304;DHT22;17112;48.636;10.152;2023-10-13T03:02:12;16.30;61.50
30304;DHT22;17112;48.636;10.152;2023-10-13T03:04:56;16.30;61.60
30304;DHT22;17112;48.636;10.152;2023-10-13T03:07:39;16.30;61.60
30304;DHT22;17112;48.636;10.152;2023-10-13T03:10:09;16.20;61.60
30304;DHT22;17112;48.636;10.152;2023-10-13T03:12:38;16.10;61.70
30304;DHT22;17112;48.636;10.152;2023-10-13T03:15:05;16.10;61.80
30304;DHT22;17112;48.636;10.152;2023-10-13T03:17:46;16.10;61.80
30304;DHT22;17112;48.636;10.152;2023-10-13T03:20:13;16.00;61.80
30304;DHT22;17112;48.636;10.152;2023-10-13T03:22:41;16.00;61.90
30304;DHT22;17112;48.636;10.152;2023-10-13T03:25:14;15.90;61.90
30304;DHT22;17112;48.636;10.152;2023-10-13T03:27:55;15.90;61.90
30304;DHT22;17112;48.636;10.152;2023-10-13T03:30:21;15.90;61.80
30304;DHT22;17112;48.636;10.152;2023-10-13T03:32:54;15.90;61.40
30304;DHT22;17112;48.636;10.152;2023-10-13T03:35:21;15.80;61.50
30304;DHT22;17112;48.636;10.152;2023-10-13T03:37:54;15.80;61.70
30304;DHT22;17112;48.636;10.152;2023-10-13T03:40:23;15.70;61.70
30304;DHT22;17112;48.636;10.152;2023-10-13T03:45:37;15.60;62.00
30304;DHT22;17112;48.636;10.152;2023-10-13T03:48:16;15.50;62.10
30304;DHT22;17112;48.636;10.152;2023-10-13T03:50:57;15.50;62.20
30304;DHT22;17112;48.636;10.152;2023-10-13T03:53:32;15.40;62.10
30304;DHT22;17112;48.636;10.152;2023-10-13T03:56:04;15.40;62.10
30304;DHT22;17112;48.636;10.152;2023-10-13T03:58:37;15.30;62.20
30304;DHT22;17112;48.636;10.152;2023-10-13T04:01:11;15.30;62.30
30304;DHT22;17112;48.636;10.152;2023-10-13T04:03:40;15.20;62.20
30304;DHT22;17112;48.636;10.152;2023-10-13T04:06:22;15.20;62.40
30304;DHT22;17112;48.636;10.152;2023-10-13T04:09:08;15.10;62.40
30304;DHT22;17112;48.636;10.152;2023-10-13T04:12:01;15.10;62.50
30304;DHT22;17112;48.636;10.152;2023-10-13T04:17:16;15.00;62.50
30304;DHT22;17112;48.636;10.152;2023-10-13T04:19:50;14.90;62.30
30304;DHT22;17112;48.636;10.152;2023-10-13T04:25:22;14.80;62.70
30304;DHT22;17112;48.636;10.152;2023-10-13T04:28:04;14.80;63.10
30304;DHT22;17112;48.636;10.152;2023-10-13T04:30:40;14.70;62.80
30304;DHT22;17112;48.636;10.152;2023-10-13T04:33:31;14.70;62.80
30304;DHT22;17112;48.636;10.152;2023-10-13T04:36:08;14.60;63.10
30304;DHT22;17112;48.636;10.152;2023-10-13T04:38:44;14.60;63.20
30304;DHT22;17112;48.636;10.152;2023-10-13T04:41:38;14.60;62.90
30304;DHT22;17112;48.636;10.152;2023-10-13T04:44:07;14.50;62.90
30304;DHT22;17112;48.636;10.152;2023-10-13T04:46:53;14.50;62.80
30304;DHT22;17112;48.636;10.152;2023-10-13T04:49:20;14.50;62.90
30304;DHT22;17112;48.636;10.152;2023-10-13T04:52:02;14.50;63.00
30304;DHT22;17112;48.636;10.152;2023-10-13T04:54:35;14.40;63.10
30304;DHT22;17112;48.636;10.152;2023-10-13T04:57:16;14.40;63.10
30304;DHT22;17112;48.636;10.152;2023-10-13T04:59:52;14.30;63.00
30304;DHT22;17112;48.636;10.152;2023-10-13T05:02:43;14.30;63.10
30304;DHT22;17112;48.636;10.152;2023-10-13T05:05:22;14.30;63.50
30304;DHT22;17112;48.636;10.152;2023-10-13T05:07:48;14.20;63.20
30304;DHT22;17112;48.636;10.152;2023-10-13T05:10:34;14.20;63.50
30304;DHT22;17112;48.636;10.152;2023-10-13T05:13:19;14.20;63.50
30304;DHT22;17112;48.636;10.152;2023-10-13T05:16:03;14.10;63.40
30304;DHT22;17112;48.636;10.152;2023-10-13T05:18:47;14.10;63.50
30304;DHT22;17112;48.636;10.152;2023-10-13T05:21:31;14.00;63.50
30304;DHT22;17112;48.636;10.152;2023-10-13T05:24:15;14.10;63.60
30304;DHT22;17112;48.636;10.152;2023-10-13T05:26:59;14.00;63.60
30304;DHT22;17112;48.636;10.152;2023-10-13T05:29:45;13.90;63.50
30304;DHT22;17112;48.636;10.152;2023-10-13T05:32:30;14.00;63.60
30304;DHT22;17112;48.636;10.152;2023-10-13T05:35:15;13.90;63.60
30304;DHT22;17112;48.636;10.152;2023-10-13T05:37:59;13.90;63.60
30304;DHT22;17112;48.636;10.152;2023-10-13T05:41:01;13.90;63.70
30304;DHT22;17112;48.636;10.152;2023-10-13T05:43:46;13.90;64.40
30304;DHT22;17112;48.636;10.152;2023-10-13T05:46:31;13.90;63.70
30304;DHT22;17112;48.636;10.152;2023-10-13T05:49:04;13.90;63.90
30304;DHT22;17112;48.636;10.152;2023-10-13T05:51:35;13.80;64.00
30304;DHT22;17112;48.636;10.152;2023-10-13T05:54:01;13.80;64.10
30304;DHT22;17112;48.636;10.152;2023-10-13T05:56:50;13.80;64.20
30304;DHT22;17112;48.636;10.152;2023-10-13T05:59:36;13.80;64.20
30304;DHT22;17112;48.636;10.152;2023-10-13T06:02:22;13.80;64.20
30304;DHT22;17112;48.636;10.152;2023-10-13T06:05:08;13.80;64.30
30304;DHT22;17112;48.636;10.152;2023-10-13T06:07:53;13.80;64.40
30304;DHT22;17112;48.636;10.152;2023-10-13T06:10:37;13.80;64.40
30304;DHT22;17112;48.636;10.152;2023-10-13T06:13:22;13.90;64.70
30304;DHT22;17112;48.636;10.152;2023-10-13T06:16:10;13.90;63.90
30304;DHT22;17112;48.636;10.152;2023-10-13T06:18:54;13.90;64.30
30304;DHT22;17112;48.636;10.152;2023-10-13T06:21:39;13.90;63.70
30304;DHT22;17112;48.636;10.152;2023-10-13T06:24:23;13.90;64.30
30304;DHT22;17112;48.636;10.152;2023-10-13T06:27:07;13.90;63.90
30304;DHT22;17112;48.636;10.152;2023-10-13T06:29:52;13.90;64.50
30304;DHT22;17112;48.636;10.152;2023-10-13T06:32:21;14.00;64.10
30304;DHT22;17112;48.636;10.152;2023-10-13T06:34:57;14.00;64.50
30304;DHT22;17112;48.636;10.152;2023-10-13T06:37:44;14.00;64.80
30304;DHT22;17112;48.636;10.152;2023-10-13T06:40:11;14.10;64.80
30304;DHT22;17112;48.636;10.152;2023-10-13T06:42:56;14.20;65.20
30304;DHT22;17112;48.636;10.152;2023-10-13T06:45:37;14.20;65.20
30304;DHT22;17112;48.636;10.152;2023-10-13T06:48:03;14.30;65.50
30304;DHT22;17112;48.636;10.152;2023-10-13T06:50:30;14.40;65.80
30304;DHT22;17112;48.636;10.152;2023-10-13T06:53:04;14.50;65.80
30304;DHT22;17112;48.636;10.152;2023-10-13T06:55:30;14.70;66.00
30304;DHT22;17112;48.636;10.152;2023-10-13T06:58:01;14.80;65.10
30304;DHT22;17112;48.636;10.152;2023-10-13T07:00:27;14.90;65.30
30304;DHT22;17112;48.636;10.152;2023-10-13T07:03:00;15.00;65.40
30304;DHT22;17112;48.636;10.152;2023-10-13T07:08:01;15.10;65.40
30304;DHT22;17112;48.636;10.152;2023-10-13T07:10:30;15.20;65.30
30304;DHT22;17112;48.636;10.152;2023-10-13T07:12:57;15.40;65.30
30304;DHT22;17112;48.636;10.152;2023-10-13T07:15:26;15.50;65.10
30304;DHT22;17112;48.636;10.152;2023-10-13T07:17:54;15.60;64.90
30304;DHT22;17112;48.636;10.152;2023-10-13T07:20:25;15.70;64.80
30304;DHT22;17112;48.636;10.152;2023-10-13T07:22:54;15.90;65.00
30304;DHT22;17112;48.636;10.152;2023-10-13T07:25:33;16.00;65.00
30304;DHT22;17112;48.636;10.152;2023-10-13T07:28:00;16.20;64.80
30304;DHT22;17112;48.636;10.152;2023-10-13T07:30:26;16.30;64.70
30304;DHT22;17112;48.636;10.152;2023-10-13T07:32:53;16.50;64.40
30304;DHT22;17112;48.636;10.152;2023-10-13T07:35:19;16.60;63.90
30304;DHT22;17112;48.636;10.152;2023-10-13T07:37:50;16.80;63.60
30304;DHT22;17112;48.636;10.152;2023-10-13T07:40:19;17.00;63.20
30304;DHT22;17112;48.636;10.152;2023-10-13T07:42:51;17.10;62.80
30304;DHT22;17112;48.636;10.152;2023-10-13T07:45:17;17.30;62.60
30304;DHT22;17112;48.636;10.152;2023-10-13T07:47:50;17.40;62.40
30304;DHT22;17112;48.636;10.152;2023-10-13T07:50:16;17.60;62.10
30304;DHT22;17112;48.636;10.152;2023-10-13T07:52:53;17.70;61.90
30304;DHT22;17112;48.636;10.152;2023-10-13T07:55:31;17.80;61.70
30304;DHT22;17112;48.636;10.152;2023-10-13T07:57:59;18.00;61.60
30304;DHT22;17112;48.636;10.152;2023-10-13T08:00:26;18.20;61.40
30304;DHT22;17112;48.636;10.152;2023-10-13T08:03:15;18.30;61.20
30304;DHT22;17112;48.636;10.152;2023-10-13T08:05:41;18.40;61.00
30304;DHT22;17112;48.636;10.152;2023-10-13T08:08:25;18.60;60.80
30304;DHT22;17112;48.636;10.152;2023-10-13T08:10:52;18.80;60.60
30304;DHT22;17112;48.636;10.152;2023-10-13T08:13:26;18.90;60.30
30304;DHT22;17112;48.636;10.152;2023-10-13T08:15:52;19.00;60.20
30304;DHT22;17112;48.636;10.152;2023-10-13T08:18:19;19.20;60.10
30304;DHT22;17112;48.636;10.152;2023-10-13T08:21:00;19.30;59.90
30304;DHT22;17112;48.636;10.152;2023-10-13T08:23:29;19.40;59.70
30304;DHT22;17112;48.636;10.152;2023-10-13T08:26:14;19.60;59.60
30304;DHT22;17112;48.636;10.152;2023-10-13T08:28:54;19.70;59.40
30304;DHT22;17112;48.636;10.152;2023-10-13T08:31:20;19.90;59.10
30304;DHT22;17112;48.636;10.152;2023-10-13T08:33:51;20.00;58.90
30304;DHT22;17112;48.636;10.152;2023-10-13T08:36:23;20.20;58.90
30304;DHT22;17112;48.636;10.152;2023-10-13T08:38:56;20.40;58.60
30304;DHT22;17112;48.636;10.152;2023-10-13T08:41:23;20.50;58.40
30304;DHT22;17112;48.636;10.152;2023-10-13T08:43:50;20.70;58.20
30304;DHT22;17112;48.636;10.152;2023-10-13T08:46:17;20.90;58.00
30304;DHT22;17112;48.636;10.152;2023-10-13T08:49:01;21.10;57.70
30304;DHT22;17112;48.636;10.152;2023-10-13T08:51:43;21.20;56.20
30304;DHT22;17112;48.636;10.152;2023-10-13T08:54:12;21.40;56.40
30304;DHT22;17112;48.636;10.152;2023-10-13T08:56:47;21.60;55.80
30304;DHT22;17112;48.636;10.152;2023-10-13T08:59:22;21.80;55.60
30304;DHT22;17112;48.636;10.152;2023-10-13T09:02:17;22.00;55.30
30304;DHT22;17112;48.636;10.152;2023-10-13T09:04:45;22.20;54.20
30304;DHT22;17112;48.636;10.152;2023-10-13T09:07:11;22.40;54.60
30304;DHT22;17112;48.636;10.152;2023-10-13T09:09:49;22.50;54.00
30304;DHT22;17112;48.636;10.152;2023-10-13T09:12:23;22.70;53.50
30304;DHT22;17112;48.636;10.152;2023-10-13T09:15:00;22.80;53.40
30304;DHT22;17112;48.636;10.152;2023-10-13T09:17:49;23.00;52.10
30304;DHT22;17112;48.636;10.152;2023-10-13T09:20:30;23.20;51.10
30304;DHT22;17112;48.636;10.152;2023-10-13T09:23:09;23.30;50.50
30304;DHT22;17112;48.636;10.152;2023-10-13T09:25:37;23.50;51.20
30304;DHT22;17112;48.636;10.152;2023-10-13T09:28:14;23.60;50.20
30304;DHT22;17112;48.636;10.152;2023-10-13T09:30:50;23.80;48.70
30304;DHT22;17112;48.636;10.152;2023-10-13T09:33:21;23.90;50.50
30304;DHT22;17112;48.636;10.152;2023-10-13T09:35:55;24.10;49.30
30304;DHT22;17112;48.636;10.152;2023-10-13T09:38:27;24.20;48.20
30304;DHT22;17112;48.636;10.152;2023-10-13T09:40:53;24.30;47.60
30304;DHT22;17112;48.636;10.152;2023-10-13T09:43:23;24.50;46.80
30304;DHT22;17112;48.636;10.152;2023-10-13T09:45:51;24.60;47.00
30304;DHT22;17112;48.636;10.152;2023-10-13T09:48:37;24.70;46.80
30304;DHT22;17112;48.636;10.152;2023-10-13T09:51:12;24.80;45.20
30304;DHT22;17112;48.636;10.152;2023-10-13T09:53:40;24.90;45.00
30304;DHT22;17112;48.636;10.152;2023-10-13T09:56:20;25.00;44.70
30304;DHT22;17112;48.636;10.152;2023-10-13T09:58:58;25.10;43.70
30304;DHT22;17112;48.636;10.152;2023-10-13T10:01:28;25.30;44.20
30304;DHT22;17112;48.636;10.152;2023-10-13T10:04:11;25.40;44.30
30304;DHT22;17112;48.636;10.152;2023-10-13T10:06:57;25.50;43.00
30304;DHT22;17112;48.636;10.152;2023-10-13T10:09:30;25.70;41.00
30304;DHT22;17112;48.636;10.152;2023-10-13T10:15:26;25.90;42.20
30304;DHT22;17112;48.636;10.152;2023-10-13T10:17:56;26.10;43.10
30304;DHT22;17112;48.636;10.152;2023-10-13T10:20:34;26.20;43.10
30304;DHT22;17112;48.636;10.152;2023-10-13T10:23:29;26.30;40.40
30304;DHT22;17112;48.636;10.152;2023-10-13T10:26:12;26.40;41.10
30304;DHT22;17112;48.636;10.152;2023-10-13T10:28:45;26.50;41.50
30304;DHT22;17112;48.636;10.152;2023-10-13T10:31:11;26.60;41.50
30304;DHT22;17112;48.636;10.152;2023-10-13T10:33:45;26.70;40.90
30304;DHT22;17112;48.636;10.152;2023-10-13T10:36:30;26.80;40.60
30304;DHT22;17112;48.636;10.152;2023-10-13T10:38:56;26.90;39.30
30304;DHT22;17112;48.636;10.152;2023-10-13T10:41:27;26.90;39.90
30304;DHT22;17112;48.636;10.152;2023-10-13T10:44:26;27.00;39.90
30304;DHT22;17112;48.636;10.152;2023-10-13T10:47:10;27.10;39.90
30304;DHT22;17112;48.636;10.152;2023-10-13T10:49:39;27.20;38.50
30304;DHT22;17112;48.636;10.152;2023-10-13T10:52:09;27.30;38.90
30304;DHT22;17112;48.636;10.152;2023-10-13T10:54:44;27.40;38.70
30304;DHT22;17112;48.636;10.152;2023-10-13T10:57:11;27.50;38.80
30304;DHT22;17112;48.636;10.152;2023-10-13T10:59:38;27.50;38.50
30304;DHT22;17112;48.636;10.152;2023-10-13T11:02:03;27.60;38.00
30304;DHT22;17112;48.636;10.152;2023-10-13T11:04:29;27.70;38.20
30304;DHT22;17112;48.636;10.152;2023-10-13T11:07:06;27.80;37.90
30304;DHT22;17112;48.636;10.152;2023-10-13T11:09:34;27.80;37.90
30304;DHT22;17112;48.636;10.152;2023-10-13T11:14:39;27.90;35.70
30304;DHT22;17112;48.636;10.152;2023-10-13T11:17:05;28.00;36.60
30304;DHT22;17112;48.636;10.152;2023-10-13T11:22:11;28.00;36.90
30304;DHT22;17112;48.636;10.152;2023-10-13T11:24:57;28.10;36.40
30304;DHT22;17112;48.636;10.152;2023-10-13T11:27:34;28.20;36.10
30304;DHT22;17112;48.636;10.152;2023-10-13T11:30:23;28.30;35.90
30304;DHT22;17112;48.636;10.152;2023-10-13T11:33:10;28.30;35.50
30304;DHT22;17112;48.636;10.152;2023-10-13T11:35:38;28.40;35.10
30304;DHT22;17112;48.636;10.152;2023-10-13T11:40:55;28.50;35.40
30304;DHT22;17112;48.636;10.152;2023-10-13T11:43:48;28.50;35.00
30304;DHT22;17112;48.636;10.152;2023-10-13T11:46:26;28.60;34.90
30304;DHT22;17112;48.636;10.152;2023-10-13T11:49:11;28.60;33.70
30304;DHT22;17112;48.636;10.152;2023-10-13T11:51:47;28.60;33.50
30304;DHT22;17112;48.636;10.152;2023-10-13T11:54:19;28.60;34.20
30304;DHT22;17112;48.636;10.152;2023-10-13T11:56:47;28.70;33.90
30304;DHT22;17112;48.636;10.152;2023-10-13T11:59:13;28.80;36.20
30304;DHT22;17112;48.636;10.152;2023-10-13T12:01:50;28.90;35.20
30304;DHT22;17112;48.636;10.152;2023-10-13T12:04:35;29.00;34.90
30304;DHT22;17112;48.636;10.152;2023-10-13T12:07:20;29.10;34.30
30304;DHT22;17112;48.636;10.152;2023-10-13T12:09:51;29.20;33.80
30304;DHT22;17112;48.636;10.152;2023-10-13T12:12:19;29.20;33.50
30304;DHT22;17112;48.636;10.152;2023-10-13T12:14:45;29.20;33.90
30304;DHT22;17112;48.636;10.152;2023-10-13T12:17:29;29.30;33.50
30304;DHT22;17112;48.636;10.152;2023-10-13T12:20:04;29.40;33.50
30304;DHT22;17112;48.636;10.152;2023-10-13T12:22:31;29.40;32.10
30304;DHT22;17112;48.636;10.152;2023-10-13T12:25:16;29.50;32.80
30304;DHT22;17112;48.636;10.152;2023-10-13T12:27:59;29.50;32.50
30304;DHT22;17112;48.636;10.152;2023-10-13T12:30:45;29.50;32.20
30304;DHT22;17112;48.636;10.152;2023-10-13T12:33:15;29.50;32.10
30304;DHT22;17112;48.636;10.152;2023-10-13T12:35:50;29.60;32.00
30304;DHT22;17112;48.636;10.152;2023-10-13T12:38:35;29.70;32.50
30304;DHT22;17112;48.636;10.152;2023-10-13T12:41:17;29.80;32.80
30304;DHT22;17112;48.636;10.152;2023-10-13T12:44:05;29.90;31.80
30304;DHT22;17112;48.636;10.152;2023-10-13T12:46:50;30.10;31.80
30304;DHT22;17112;48.636;10.152;2023-10-13T12:49:35;30.20;31.20
30304;DHT22;17112;48.636;10.152;2023-10-13T12:52:13;30.30;31.40
30304;DHT22;17112;48.636;10.152;2023-10-13T12:54:42;30.40;31.40
30304;DHT22;17112;48.636;10.152;2023-10-13T12:57:14;30.50;31.20
30304;DHT22;17112;48.636;10.152;2023-10-13T12:59:40;30.60;30.90
30304;DHT22;17112;48.636;10.152;2023-10-13T13:02:06;30.60;30.40
30304;DHT22;17112;48.636;10.152;2023-10-13T13:04:33;30.60;30.00
30304;DHT22;17112;48.636;10.152;2023-10-13T13:07:02;30.70;30.00
30304;DHT22;17112;48.636;10.152;2023-10-13T13:09:31;30.70;29.90
30304;DHT22;17112;48.636;10.152;2023-10-13T13:11:57;30.80;30.00
30304;DHT22;17112;48.636;10.152;2023-10-13T13:14:24;30.90;30.00
30304;DHT22;17112;48.636;10.152;2023-10-13T13:16:57;31.00;29.60
30304;DHT22;17112;48.636;10.152;2023-10-13T13:19:35;31.00;28.90
30304;DHT22;17112;48.636;10.152;2023-10-13T13:22:08;31.10;29.70
30304;DHT22;17112;48.636;10.152;2023-10-13T13:24:43;31.10;29.50
30304;DHT22;17112;48.636;10.152;2023-10-13T13:27:14;31.20;29.20
30304;DHT22;17112;48.636;10.152;2023-10-13T13:29:41;31.20;29.10
30304;DHT22;17112;48.636;10.152;2023-10-13T13:32:07;31.30;29.10
30304;DHT22;17112;48.636;10.152;2023-10-13T13:34:43;31.30;28.90
30304;DHT22;17112;48.636;10.152;2023-10-13T13:37:09;31.40;28.90
30304;DHT22;17112;48.636;10.152;2023-10-13T13:39:38;31.40;28.60
30304;DHT22;17112;48.636;10.152;2023-10-13T13:42:09;31.40;29.00
30304;DHT22;17112;48.636;10.152;2023-10-13T13:44:35;31.50;28.80
30304;DHT22;17112;48.636;10.152;2023-10-13T13:47:05;31.50;28.90
30304;DHT22;17112;48.636;10.152;2023-10-13T13:49:38;31.50;29.10
30304;DHT22;17112;48.636;10.152;2023-10-13T13:52:07;31.60;29.00
30304;DHT22;17112;48.636;10.152;2023-10-13T13:54:33;31.70;28.60
30304;DHT22;17112;48.636;10.152;2023-10-13T13:56:58;31.70;28.70
30304;DHT22;17112;48.636;10.152;2023-10-13T13:59:24;31.80;28.50
30304;DHT22;17112;48.636;10.152;2023-10-13T14:01:50;31.80;28.00
30304;DHT22;17112;48.636;10.152;2023-10-13T14:04:18;31.90;28.30
30304;DHT22;17112;48.636;10.152;2023-10-13T14:06:44;31.90;28.00
30304;DHT22;17112;48.636;10.152;2023-10-13T14:09:11;32.00;28.10
30304;DHT22;17112;48.636;10.152;2023-10-13T14:11:39;32.00;28.10
30304;DHT22;17112;48.636;10.152;2023-10-13T14:16:38;32.10;28.10
30304;DHT22;17112;48.636;10.152;2023-10-13T14:19:19;32.20;28.10
30304;DHT22;17112;48.636;10.152;2023-10-13T14:21:55;32.30;28.30
30304;DHT22;17112;48.636;10.152;2023-10-13T14:24:22;32.40;27.70
30304;DHT22;17112;48.636;10.152;2023-10-13T14:26:55;32.40;27.30
30304;DHT22;17112;48.636;10.152;2023-10-13T14:29:20;32.50;27.20
30304;DHT22;17112;48.636;10.152;2023-10-13T14:31:46;32.50;27.40
30304;DHT22;17112;48.636;10.152;2023-10-13T14:34:14;32.50;26.90
30304;DHT22;17112;48.636;10.152;2023-10-13T14:36:43;32.50;27.10
30304;DHT22;17112;48.636;10.152;2023-10-13T14:39:14;32.50;26.90
30304;DHT22;17112;48.636;10.152;2023-10-13T14:41:40;32.50;26.80
30304;DHT22;17112;48.636;10.152;2023-10-13T14:44:06;32.50;26.90
30304;DHT22;17112;48.636;10.152;2023-10-13T14:46:32;32.50;26.80
30304;DHT22;17112;48.636;10.152;2023-10-13T14:49:02;32.50;26.80
30304;DHT22;17112;48.636;10.152;2023-10-13T14:51:28;32.50;26.50
30304;DHT22;17112;48.636;10.152;2023-10-13T14:53:54;32.40;26.50
30304;DHT22;17112;48.636;10.152;2023-10-13T14:56:25;32.40;26.40
30304;DHT22;17112;48.636;10.152;2023-10-13T14:58:52;32.40;26.30
30304;DHT22;17112;48.636;10.152;2023-10-13T15:01:20;32.30;26.10
30304;DHT22;17112;48.636;10.152;2023-10-13T15:03:48;32.30;26.40
30304;DHT22;17112;48.636;10.152;2023-10-13T15:06:18;32.30;26.40
30304;DHT22;17112;48.636;10.152;2023-10-13T15:08:46;32.30;26.20
30304;DHT22;17112;48.636;10.152;2023-10-13T15:11:13;32.30;26.40
30304;DHT22;17112;48.636;10.152;2023-10-13T15:13:41;32.30;26.30
30304;DHT22;17112;48.636;10.152;2023-10-13T15:18:40;32.30;25.80
30304;DHT22;17112;48.636;10.152;2023-10-13T15:21:06;32.40;26.40
30304;DHT22;17112;48.636;10.152;2023-10-13T15:23:34;32.40;26.50
30304;DHT22;17112;48.636;10.152;2023-10-13T15:26:08;32.40;26.20
30304;DHT22;17112;48.636;10.152;2023-10-13T15:28:38;32.40;26.30
30304;DHT22;17112;48.636;10.152;2023-10-13T15:31:11;32.40;26.20
30304;DHT22;17112;48.636;10.152;2023-10-13T15:33:50;32.50;26.00
30304;DHT22;17112;48.636;10.152;2023-10-13T15:36:23;32.50;26.10
30304;DHT22;17112;48.636;10.152;2023-10-13T15:38:58;32.30;25.90
30304;DHT22;17112;48.636;10.152;2023-10-13T15:41:25;32.10;26.00
30304;DHT22;17112;48.636;10.152;2023-10-13T15:43:51;31.80;26.10
30304;DHT22;17112;48.636;10.152;2023-10-13T15:46:21;31.50;26.30
30304;DHT22;17112;48.636;10.152;2023-10-13T15:48:48;31.20;26.40
30304;DHT22;17112;48.636;10.152;2023-10-13T15:51:13;30.80;26.50
30304;DHT22;17112;48.636;10.152;2023-10-13T15:53:39;30.50;26.90
30304;DHT22;17112;48.636;10.152;2023-10-13T15:56:05;30.20;27.20
30304;DHT22;17112;48.636;10.152;2023-10-13T15:59:00;29.90;27.50
30304;DHT22;17112;48.636;10.152;2023-10-13T16:01:32;29.60;27.70
30304;DHT22;17112;48.636;10.152;2023-10-13T16:04:00;29.40;28.00
30304;DHT22;17112;48.636;10.152;2023-10-13T16:06:33;29.20;28.40
30304;DHT22;17112;48.636;10.152;2023-10-13T16:08:58;29.00;28.70
30304;DHT22;17112;48.636;10.152;2023-10-13T16:11:24;28.80;28.80
30304;DHT22;17112;48.636;10.152;2023-10-13T16:13:50;28.60;28.90
30304;DHT22;17112;48.636;10.152;2023-10-13T16:16:21;28.40;29.10
30304;DHT22;17112;48.636;10.152;2023-10-13T16:18:53;28.30;29.40
30304;DHT22;17112;48.636;10.152;2023-10-13T16:21:19;28.10;29.50